sensor_id;sensor_type;location;lat;lon;timestamp;P1;durP1;ratioP1;P2;durP2;ratioP2
60354;SDS011;46198;51.464;-0.066;2023-05-10T00:06:21;5.15;;;2.40;;
60354;SDS011;46198;51.464;-0.066;2023-05-10T00:15:33;5.45;;;2.38;;
60354;SDS011;46198;51.464;-0.066;2023-05-10T00:18:19;5.13;;;2.58;;
60354;SDS011;46198;51.464;-0.066;2023-05-10T00:26:29;5.75;;;2.53;;
60354;SDS011;46198;51.464;-0.066;2023-05-10T00:42:44;5.80;;;3.28;;
60354;SDS011;46198;51.464;-0.066;2023-05-10T00:52:37;6.40;;;3.67;;
60354;SDS011;46198;51.464;-0.066;2023-05-10T00:58:20;6.65;;;4.03;;
60354;SDS011;46198;51.464;-0.066;2023-05-10T01:15:27;9.27;;;4.35;;
60354;SDS011;46198;51.464;-0.066;2023-05-10T01:18:19;9.90;;;4.95;;
60354;SDS011;46198;51.464;-0.066;2023-05-10T01:20:59;9.48;;;5.28;;
60354;SDS011;46198;51.464;-0.066;2023-05-10T01:23:45;8.70;;;4.95;;
60354;SDS011;46198;51.464;-0.066;2023-05-10T01:26:47;8.80;;;4.93;;
60354;SDS011;46198;51.464;-0.066;2023-05-10T01:29:47;7.65;;;4.78;;
60354;SDS011;46198;51.464;-0.066;2023-05-10T01:32:46;9.35;;;4.70;;
60354;SDS011;46198;51.464;-0.066;2023-05-10T01:43:01;8.23;;;4.25;;
60354;SDS011;46198;51.464;-0.066;2023-05-10T01:46:14;8.65;;;5.22;;
60354;SDS011;46198;51.464;-0.066;2023-05-10T01:57:49;7.22;;;3.97;;
60354;SDS011;46198;51.464;-0.066;2023-05-10T02:04:15;8.52;;;4.60;;
60354;SDS011;46198;51.464;-0.066;2023-05-10T02:10:37;6.63;;;4.55;;
60354;SDS011;46198;51.464;-0.066;2023-05-10T02:13:12;12.27;;;4.90;;
60354;SDS011;46198;51.464;-0.066;2023-05-10T02:15:47;7.68;;;4.55;;
60354;SDS011;46198;51.464;-0.066;2023-05-10T02:18:45;14.13;;;4.85;;
60354;SDS011;46198;51.464;-0.066;2023-05-10T02:21:53;11.25;;;5.13;;
60354;SDS011;46198;51.464;-0.066;2023-05-10T02:27:36;8.32;;;4.30;;
60354;SDS011;46198;51.464;-0.066;2023-05-10T02:31:43;6.28;;;3.78;;
60354;SDS011;46198;51.464;-0.066;2023-05-10T02:34:45;8.07;;;4.25;;
60354;SDS011;46198;51.464;-0.066;2023-05-10T02:37:34;7.25;;;4.18;;
60354;SDS011;46198;51.464;-0.066;2023-05-10T02:43:31;8.50;;;4.30;;
60354;SDS011;46198;51.464;-0.066;2023-05-10T02:46:01;8.32;;;4.00;;
60354;SDS011;46198;51.464;-0.066;2023-05-10T02:48:37;9.63;;;4.20;;
60354;SDS011;46198;51.464;-0.066;2023-05-10T02:51:26;8.05;;;4.00;;
60354;SDS011;46198;51.464;-0.066;2023-05-10T02:54:27;8.90;;;4.10;;
60354;SDS011;46198;51.464;-0.066;2023-05-10T02:57:17;10.27;;;4.60;;
60354;SDS011;46198;51.464;-0.066;2023-05-10T03:12:51;6.65;;;3.95;;
60354;SDS011;46198;51.464;-0.066;2023-05-10T03:16:05;7.20;;;4.22;;
60354;SDS011;46198;51.464;-0.066;2023-05-10T03:19:17;7.00;;;3.80;;
60354;SDS011;46198;51.464;-0.066;2023-05-10T03:22:06;7.15;;;4.38;;
60354;SDS011;46198;51.464;-0.066;2023-05-10T03:25:08;8.93;;;4.40;;
60354;SDS011;46198;51.464;-0.066;2023-05-10T03:28:58;8.35;;;3.85;;
60354;SDS011;46198;51.464;-0.066;2023-05-10T03:31:45;6.63;;;3.78;;
60354;SDS011;46198;51.464;-0.066;2023-05-10T03:35:05;6.18;;;3.85;;
60354;SDS011;46198;51.464;-0.066;2023-05-10T03:37:41;9.13;;;3.92;;
60354;SDS011;46198;51.464;-0.066;2023-05-10T03:40:11;6.50;;;3.70;;
60354;SDS011;46198;51.464;-0.066;2023-05-10T03:48:40;10.23;;;4.45;;
60354;SDS011;46198;51.464;-0.066;2023-05-10T03:55:51;7.75;;;4.03;;
60354;SDS011;46198;51.464;-0.066;2023-05-10T03:58:21;8.65;;;4.55;;
60354;SDS011;46198;51.464;-0.066;2023-05-10T04:00:59;9.45;;;4.30;;
60354;SDS011;46198;51.464;-0.066;2023-05-10T04:03:45;7.68;;;4.53;;
60354;SDS011;46198;51.464;-0.066;2023-05-10T04:06:37;7.70;;;4.30;;
60354;SDS011;46198;51.464;-0.066;2023-05-10T04:09:11;9.05;;;5.20;;
60354;SDS011;46198;51.464;-0.066;2023-05-10T04:11:51;14.80;;;6.20;;
60354;SDS011;46198;51.464;-0.066;2023-05-10T04:14:29;10.95;;;5.20;;
60354;SDS011;46198;51.464;-0.066;2023-05-10T04:17:01;7.78;;;4.90;;
60354;SDS011;46198;51.464;-0.066;2023-05-10T04:19:34;9.23;;;5.32;;
60354;SDS011;46198;51.464;-0.066;2023-05-10T04:22:03;9.07;;;4.70;;
60354;SDS011;46198;51.464;-0.066;2023-05-10T04:24:35;11.13;;;5.28;;
60354;SDS011;46198;51.464;-0.066;2023-05-10T04:27:22;11.00;;;6.00;;
60354;SDS011;46198;51.464;-0.066;2023-05-10T04:29:57;12.80;;;6.40;;
60354;SDS011;46198;51.464;-0.066;2023-05-10T04:32:29;9.20;;;5.47;;
60354;SDS011;46198;51.464;-0.066;2023-05-10T04:35:03;13.25;;;5.88;;
60354;SDS011;46198;51.464;-0.066;2023-05-10T04:37:32;12.88;;;5.30;;
60354;SDS011;46198;51.464;-0.066;2023-05-10T04:40:01;11.57;;;5.82;;
60354;SDS011;46198;51.464;-0.066;2023-05-10T04:42:33;8.68;;;5.28;;
60354;SDS011;46198;51.464;-0.066;2023-05-10T04:45:11;11.18;;;5.95;;
60354;SDS011;46198;51.464;-0.066;2023-05-10T04:47:46;10.48;;;5.72;;
60354;SDS011;46198;51.464;-0.066;2023-05-10T04:50:21;12.50;;;5.75;;
60354;SDS011;46198;51.464;-0.066;2023-05-10T04:53:02;13.88;;;6.35;;
60354;SDS011;46198;51.464;-0.066;2023-05-10T04:55:30;10.77;;;6.65;;
60354;SDS011;46198;51.464;-0.066;2023-05-10T04:57:59;11.57;;;5.53;;
60354;SDS011;46198;51.464;-0.066;2023-05-10T05:00:29;10.57;;;6.10;;
60354;SDS011;46198;51.464;-0.066;2023-05-10T05:02:58;12.48;;;5.88;;
60354;SDS011;46198;51.464;-0.066;2023-05-10T05:05:30;11.23;;;6.50;;
60354;SDS011;46198;51.464;-0.066;2023-05-10T05:07:59;12.70;;;6.63;;
60354;SDS011;46198;51.464;-0.066;2023-05-10T05:10:28;12.55;;;6.47;;
60354;SDS011;46198;51.464;-0.066;2023-05-10T05:12:56;11.07;;;6.80;;
60354;SDS011;46198;51.464;-0.066;2023-05-10T05:15:25;11.50;;;6.60;;
60354;SDS011;46198;51.464;-0.066;2023-05-10T05:17:58;14.68;;;6.50;;
60354;SDS011;46198;51.464;-0.066;2023-05-10T05:20:33;15.85;;;7.47;;
60354;SDS011;46198;51.464;-0.066;2023-05-10T05:23:01;14.70;;;7.25;;
60354;SDS011;46198;51.464;-0.066;2023-05-10T05:25:30;16.10;;;7.70;;
60354;SDS011;46198;51.464;-0.066;2023-05-10T05:28:02;13.75;;;7.28;;
60354;SDS011;46198;51.464;-0.066;2023-05-10T05:30:30;12.25;;;7.55;;
60354;SDS011;46198;51.464;-0.066;2023-05-10T05:33:16;16.20;;;7.65;;
60354;SDS011;46198;51.464;-0.066;2023-05-10T05:35:52;17.70;;;8.10;;
60354;SDS011;46198;51.464;-0.066;2023-05-10T05:38:40;18.08;;;8.05;;
60354;SDS011;46198;51.464;-0.066;2023-05-10T05:41:16;24.08;;;9.98;;
60354;SDS011;46198;51.464;-0.066;2023-05-10T05:44:11;17.70;;;8.47;;
60354;SDS011;46198;51.464;-0.066;2023-05-10T05:46:46;17.85;;;8.80;;
60354;SDS011;46198;51.464;-0.066;2023-05-10T05:49:39;17.88;;;8.05;;
60354;SDS011;46198;51.464;-0.066;2023-05-10T05:52:13;16.58;;;9.25;;
60354;SDS011;46198;51.464;-0.066;2023-05-10T05:55:34;17.15;;;9.15;;
60354;SDS011;46198;51.464;-0.066;2023-05-10T05:58:03;20.02;;;8.13;;
60354;SDS011;46198;51.464;-0.066;2023-05-10T06:00:34;17.30;;;8.52;;
60354;SDS011;46198;51.464;-0.066;2023-05-10T06:03:08;17.33;;;8.60;;
60354;SDS011;46198;51.464;-0.066;2023-05-10T06:06:22;18.92;;;9.52;;
60354;SDS011;46198;51.464;-0.066;2023-05-10T06:08:52;17.13;;;8.75;;
60354;SDS011;46198;51.464;-0.066;2023-05-10T06:11:47;22.38;;;10.10;;
60354;SDS011;46198;51.464;-0.066;2023-05-10T06:14:40;19.15;;;9.15;;
60354;SDS011;46198;51.464;-0.066;2023-05-10T06:17:56;17.77;;;7.70;;
60354;SDS011;46198;51.464;-0.066;2023-05-10T06:20:29;14.98;;;7.25;;
60354;SDS011;46198;51.464;-0.066;2023-05-10T06:22:59;16.92;;;7.50;;
60354;SDS011;46198;51.464;-0.066;2023-05-10T06:25:33;13.88;;;7.32;;
60354;SDS011;46198;51.464;-0.066;2023-05-10T06:28:04;14.82;;;7.28;;
60354;SDS011;46198;51.464;-0.066;2023-05-10T06:30:35;14.48;;;7.80;;
60354;SDS011;46198;51.464;-0.066;2023-05-10T06:33:23;10.60;;;6.78;;
60354;SDS011;46198;51.464;-0.066;2023-05-10T06:35:58;14.15;;;7.35;;
60354;SDS011;46198;51.464;-0.066;2023-05-10T06:39:07;12.25;;;6.63;;
60354;SDS011;46198;51.464;-0.066;2023-05-10T06:41:40;13.82;;;7.13;;
60354;SDS011;46198;51.464;-0.066;2023-05-10T06:44:13;16.77;;;8.25;;
60354;SDS011;46198;51.464;-0.066;2023-05-10T06:46:42;16.77;;;7.55;;
60354;SDS011;46198;51.464;-0.066;2023-05-10T06:49:17;18.08;;;7.38;;
60354;SDS011;46198;51.464;-0.066;2023-05-10T06:52:37;16.67;;;7.38;;
60354;SDS011;46198;51.464;-0.066;2023-05-10T06:55:26;12.52;;;7.22;;
60354;SDS011;46198;51.464;-0.066;2023-05-10T06:58:20;13.73;;;7.07;;
60354;SDS011;46198;51.464;-0.066;2023-05-10T07:01:47;12.93;;;6.57;;
60354;SDS011;46198;51.464;-0.066;2023-05-10T07:04:57;13.45;;;6.55;;
60354;SDS011;46198;51.464;-0.066;2023-05-10T07:07:48;12.85;;;6.97;;
60354;SDS011;46198;51.464;-0.066;2023-05-10T07:13:52;16.75;;;6.68;;
60354;SDS011;46198;51.464;-0.066;2023-05-10T07:16:23;14.60;;;5.68;;
60354;SDS011;46198;51.464;-0.066;2023-05-10T07:18:51;11.18;;;4.75;;
60354;SDS011;46198;51.464;-0.066;2023-05-10T07:21:27;12.95;;;5.28;;
60354;SDS011;46198;51.464;-0.066;2023-05-10T07:24:47;14.15;;;4.43;;
60354;SDS011;46198;51.464;-0.066;2023-05-10T07:27:22;11.52;;;4.63;;
60354;SDS011;46198;51.464;-0.066;2023-05-10T07:33:40;14.60;;;6.15;;
60354;SDS011;46198;51.464;-0.066;2023-05-10T07:36:20;12.52;;;5.97;;
60354;SDS011;46198;51.464;-0.066;2023-05-10T07:38:52;11.15;;;4.45;;
60354;SDS011;46198;51.464;-0.066;2023-05-10T07:41:34;9.63;;;4.63;;
60354;SDS011;46198;51.464;-0.066;2023-05-10T07:44:07;7.88;;;3.70;;
60354;SDS011;46198;51.464;-0.066;2023-05-10T07:46:41;10.20;;;3.60;;
60354;SDS011;46198;51.464;-0.066;2023-05-10T07:49:26;9.40;;;3.53;;
60354;SDS011;46198;51.464;-0.066;2023-05-10T07:51:57;9.10;;;3.83;;
60354;SDS011;46198;51.464;-0.066;2023-05-10T07:54:27;8.60;;;3.13;;
60354;SDS011;46198;51.464;-0.066;2023-05-10T08:00:22;12.00;;;3.97;;
60354;SDS011;46198;51.464;-0.066;2023-05-10T08:03:06;9.27;;;3.67;;
60354;SDS011;46198;51.464;-0.066;2023-05-10T08:05:40;7.78;;;4.10;;
60354;SDS011;46198;51.464;-0.066;2023-05-10T08:08:11;14.30;;;4.43;;
60354;SDS011;46198;51.464;-0.066;2023-05-10T08:10:41;10.30;;;3.65;;
60354;SDS011;46198;51.464;-0.066;2023-05-10T08:13:13;7.75;;;3.45;;
60354;SDS011;46198;51.464;-0.066;2023-05-10T08:15:52;9.27;;;5.45;;
60354;SDS011;46198;51.464;-0.066;2023-05-10T08:18:22;12.38;;;4.50;;
60354;SDS011;46198;51.464;-0.066;2023-05-10T08:20:57;10.32;;;4.43;;
60354;SDS011;46198;51.464;-0.066;2023-05-10T08:23:26;8.93;;;4.50;;
60354;SDS011;46198;51.464;-0.066;2023-05-10T08:25:57;13.52;;;5.05;;
60354;SDS011;46198;51.464;-0.066;2023-05-10T08:28:39;9.27;;;3.95;;
60354;SDS011;46198;51.464;-0.066;2023-05-10T08:31:13;14.65;;;3.95;;
60354;SDS011;46198;51.464;-0.066;2023-05-10T08:33:52;12.77;;;3.78;;
60354;SDS011;46198;51.464;-0.066;2023-05-10T08:36:31;9.60;;;4.13;;
60354;SDS011;46198;51.464;-0.066;2023-05-10T08:39:04;6.90;;;3.78;;
60354;SDS011;46198;51.464;-0.066;2023-05-10T08:41:48;10.23;;;4.43;;
60354;SDS011;46198;51.464;-0.066;2023-05-10T08:44:26;9.88;;;3.72;;
60354;SDS011;46198;51.464;-0.066;2023-05-10T08:46:56;8.40;;;3.95;;
60354;SDS011;46198;51.464;-0.066;2023-05-10T08:49:33;12.57;;;4.30;;
60354;SDS011;46198;51.464;-0.066;2023-05-10T08:52:11;10.35;;;4.60;;
60354;SDS011;46198;51.464;-0.066;2023-05-10T08:54:47;9.32;;;4.20;;
60354;SDS011;46198;51.464;-0.066;2023-05-10T08:57:18;10.13;;;4.53;;
60354;SDS011;46198;51.464;-0.066;2023-05-10T08:59:49;9.43;;;4.80;;
60354;SDS011;46198;51.464;-0.066;2023-05-10T09:02:45;11.95;;;4.90;;
60354;SDS011;46198;51.464;-0.066;2023-05-10T09:05:41;7.82;;;3.97;;
60354;SDS011;46198;51.464;-0.066;2023-05-10T09:08:11;7.95;;;4.10;;
60354;SDS011;46198;51.464;-0.066;2023-05-10T09:10:40;8.63;;;4.05;;
60354;SDS011;46198;51.464;-0.066;2023-05-10T09:13:10;13.60;;;4.45;;
60354;SDS011;46198;51.464;-0.066;2023-05-10T09:19:34;8.45;;;4.40;;
60354;SDS011;46198;51.464;-0.066;2023-05-10T09:22:04;7.57;;;4.55;;
60354;SDS011;46198;51.464;-0.066;2023-05-10T09:24:32;10.80;;;4.37;;
60354;SDS011;46198;51.464;-0.066;2023-05-10T09:27:01;8.70;;;4.22;;
60354;SDS011;46198;51.464;-0.066;2023-05-10T09:29:38;8.30;;;4.03;;
60354;SDS011;46198;51.464;-0.066;2023-05-10T09:32:07;7.72;;;3.38;;
60354;SDS011;46198;51.464;-0.066;2023-05-10T09:34:35;8.88;;;3.58;;
60354;SDS011;46198;51.464;-0.066;2023-05-10T09:37:07;8.27;;;3.88;;
60354;SDS011;46198;51.464;-0.066;2023-05-10T09:39:36;11.63;;;3.95;;
60354;SDS011;46198;51.464;-0.066;2023-05-10T09:42:07;9.32;;;3.53;;
60354;SDS011;46198;51.464;-0.066;2023-05-10T09:44:36;9.25;;;4.07;;
60354;SDS011;46198;51.464;-0.066;2023-05-10T09:47:04;8.05;;;3.80;;
60354;SDS011;46198;51.464;-0.066;2023-05-10T09:49:32;7.80;;;4.35;;
60354;SDS011;46198;51.464;-0.066;2023-05-10T09:52:02;10.60;;;4.68;;
60354;SDS011;46198;51.464;-0.066;2023-05-10T09:54:36;10.20;;;4.72;;
60354;SDS011;46198;51.464;-0.066;2023-05-10T09:57:05;9.10;;;4.00;;
60354;SDS011;46198;51.464;-0.066;2023-05-10T09:59:33;10.27;;;4.20;;
60354;SDS011;46198;51.464;-0.066;2023-05-10T10:02:05;12.77;;;4.63;;
60354;SDS011;46198;51.464;-0.066;2023-05-10T10:04:38;13.00;;;5.03;;
60354;SDS011;46198;51.464;-0.066;2023-05-10T10:07:07;10.43;;;4.97;;
60354;SDS011;46198;51.464;-0.066;2023-05-10T10:09:39;8.13;;;4.20;;
60354;SDS011;46198;51.464;-0.066;2023-05-10T10:12:08;7.25;;;4.03;;
60354;SDS011;46198;51.464;-0.066;2023-05-10T10:14:45;7.53;;;4.03;;
60354;SDS011;46198;51.464;-0.066;2023-05-10T10:17:23;10.77;;;4.95;;
60354;SDS011;46198;51.464;-0.066;2023-05-10T10:19:57;7.95;;;4.25;;
60354;SDS011;46198;51.464;-0.066;2023-05-10T10:22:26;8.38;;;3.92;;
60354;SDS011;46198;51.464;-0.066;2023-05-10T10:24:56;10.70;;;3.75;;
60354;SDS011;46198;51.464;-0.066;2023-05-10T10:27:26;7.80;;;3.70;;
60354;SDS011;46198;51.464;-0.066;2023-05-10T10:30:04;9.20;;;4.63;;
60354;SDS011;46198;51.464;-0.066;2023-05-10T10:32:45;7.18;;;3.88;;
60354;SDS011;46198;51.464;-0.066;2023-05-10T10:35:31;6.85;;;4.13;;
60354;SDS011;46198;51.464;-0.066;2023-05-10T10:38:00;11.20;;;4.38;;
60354;SDS011;46198;51.464;-0.066;2023-05-10T10:40:30;6.00;;;3.88;;
60354;SDS011;46198;51.464;-0.066;2023-05-10T10:48:39;9.10;;;3.85;;
60354;SDS011;46198;51.464;-0.066;2023-05-10T10:51:08;9.63;;;3.45;;
60354;SDS011;46198;51.464;-0.066;2023-05-10T10:53:40;6.32;;;3.55;;
60354;SDS011;46198;51.464;-0.066;2023-05-10T10:56:10;7.40;;;3.42;;
60354;SDS011;46198;51.464;-0.066;2023-05-10T10:58:42;9.85;;;4.18;;
60354;SDS011;46198;51.464;-0.066;2023-05-10T11:01:18;11.50;;;4.38;;
60354;SDS011;46198;51.464;-0.066;2023-05-10T11:06:45;6.80;;;3.70;;
60354;SDS011;46198;51.464;-0.066;2023-05-10T11:09:13;5.38;;;3.00;;
60354;SDS011;46198;51.464;-0.066;2023-05-10T11:14:36;9.23;;;3.47;;
60354;SDS011;46198;51.464;-0.066;2023-05-10T11:20:04;7.85;;;3.00;;
60354;SDS011;46198;51.464;-0.066;2023-05-10T11:25:40;4.72;;;3.20;;
60354;SDS011;46198;51.464;-0.066;2023-05-10T11:28:12;6.15;;;2.90;;
60354;SDS011;46198;51.464;-0.066;2023-05-10T11:30:41;5.57;;;2.38;;
60354;SDS011;46198;51.464;-0.066;2023-05-10T11:33:14;5.95;;;2.58;;
60354;SDS011;46198;51.464;-0.066;2023-05-10T11:35:44;6.38;;;2.65;;
60354;SDS011;46198;51.464;-0.066;2023-05-10T11:38:13;6.47;;;2.40;;
60354;SDS011;46198;51.464;-0.066;2023-05-10T11:40:41;5.82;;;3.05;;
60354;SDS011;46198;51.464;-0.066;2023-05-10T11:43:09;4.65;;;2.20;;
60354;SDS011;46198;51.464;-0.066;2023-05-10T11:45:41;7.93;;;3.08;;
60354;SDS011;46198;51.464;-0.066;2023-05-10T11:48:10;3.92;;;2.78;;
60354;SDS011;46198;51.464;-0.066;2023-05-10T11:50:38;4.82;;;2.40;;
60354;SDS011;46198;51.464;-0.066;2023-05-10T11:53:06;4.43;;;2.78;;
60354;SDS011;46198;51.464;-0.066;2023-05-10T11:55:34;4.68;;;2.30;;
60354;SDS011;46198;51.464;-0.066;2023-05-10T11:58:02;6.65;;;2.40;;
60354;SDS011;46198;51.464;-0.066;2023-05-10T12:00:30;5.28;;;2.47;;
60354;SDS011;46198;51.464;-0.066;2023-05-10T12:03:01;8.75;;;2.78;;
60354;SDS011;46198;51.464;-0.066;2023-05-10T12:05:31;6.43;;;2.58;;
60354;SDS011;46198;51.464;-0.066;2023-05-10T12:08:13;7.88;;;2.75;;
60354;SDS011;46198;51.464;-0.066;2023-05-10T12:10:42;5.38;;;2.78;;
60354;SDS011;46198;51.464;-0.066;2023-05-10T12:13:11;7.30;;;2.58;;
60354;SDS011;46198;51.464;-0.066;2023-05-10T12:16:20;5.13;;;2.50;;
60354;SDS011;46198;51.464;-0.066;2023-05-10T12:19:19;6.00;;;2.33;;
60354;SDS011;46198;51.464;-0.066;2023-05-10T12:21:57;5.25;;;2.30;;
60354;SDS011;46198;51.464;-0.066;2023-05-10T12:24:26;6.55;;;2.35;;
60354;SDS011;46198;51.464;-0.066;2023-05-10T12:27:00;6.78;;;2.95;;
60354;SDS011;46198;51.464;-0.066;2023-05-10T12:30:18;8.10;;;3.03;;
60354;SDS011;46198;51.464;-0.066;2023-05-10T12:32:47;4.63;;;2.50;;
60354;SDS011;46198;51.464;-0.066;2023-05-10T12:38:25;6.18;;;2.15;;
60354;SDS011;46198;51.464;-0.066;2023-05-10T12:40:56;4.55;;;2.70;;
60354;SDS011;46198;51.464;-0.066;2023-05-10T12:43:25;3.75;;;2.42;;
60354;SDS011;46198;51.464;-0.066;2023-05-10T12:45:53;4.50;;;2.55;;
60354;SDS011;46198;51.464;-0.066;2023-05-10T12:48:22;7.75;;;2.58;;
60354;SDS011;46198;51.464;-0.066;2023-05-10T12:50:52;7.63;;;2.83;;
60354;SDS011;46198;51.464;-0.066;2023-05-10T12:53:20;7.20;;;2.45;;
60354;SDS011;46198;51.464;-0.066;2023-05-10T12:55:48;8.57;;;3.13;;
60354;SDS011;46198;51.464;-0.066;2023-05-10T12:58:16;7.95;;;2.63;;
60354;SDS011;46198;51.464;-0.066;2023-05-10T13:01:00;4.45;;;2.25;;
60354;SDS011;46198;51.464;-0.066;2023-05-10T13:03:29;4.72;;;2.50;;
60354;SDS011;46198;51.464;-0.066;2023-05-10T13:06:00;5.13;;;2.47;;
60354;SDS011;46198;51.464;-0.066;2023-05-10T13:08:29;6.27;;;2.57;;
60354;SDS011;46198;51.464;-0.066;2023-05-10T13:11:00;7.20;;;2.60;;
60354;SDS011;46198;51.464;-0.066;2023-05-10T13:13:37;5.30;;;2.47;;
60354;SDS011;46198;51.464;-0.066;2023-05-10T13:16:14;5.07;;;2.45;;
60354;SDS011;46198;51.464;-0.066;2023-05-10T13:19:06;5.73;;;2.50;;
60354;SDS011;46198;51.464;-0.066;2023-05-10T13:21:48;7.82;;;3.00;;
60354;SDS011;46198;51.464;-0.066;2023-05-10T13:24:16;7.47;;;3.35;;
60354;SDS011;46198;51.464;-0.066;2023-05-10T13:26:52;4.90;;;3.15;;
60354;SDS011;46198;51.464;-0.066;2023-05-10T13:29:21;11.40;;;3.40;;
60354;SDS011;46198;51.464;-0.066;2023-05-10T13:32:35;7.60;;;3.10;;
60354;SDS011;46198;51.464;-0.066;2023-05-10T13:35:05;5.03;;;1.92;;
60354;SDS011;46198;51.464;-0.066;2023-05-10T13:37:35;3.95;;;1.98;;
60354;SDS011;46198;51.464;-0.066;2023-05-10T13:40:09;5.20;;;1.80;;
60354;SDS011;46198;51.464;-0.066;2023-05-10T13:42:43;2.53;;;1.30;;
60354;SDS011;46198;51.464;-0.066;2023-05-10T13:45:12;6.97;;;5.53;;
60354;SDS011;46198;51.464;-0.066;2023-05-10T13:47:40;18.55;;;11.02;;
60354;SDS011;46198;51.464;-0.066;2023-05-10T13:50:08;6.13;;;2.40;;
60354;SDS011;46198;51.464;-0.066;2023-05-10T13:52:38;27.88;;;18.02;;
60354;SDS011;46198;51.464;-0.066;2023-05-10T13:55:06;4.10;;;1.88;;
60354;SDS011;46198;51.464;-0.066;2023-05-10T13:57:35;9.45;;;1.55;;
60354;SDS011;46198;51.464;-0.066;2023-05-10T14:00:04;4.50;;;1.63;;
60354;SDS011;46198;51.464;-0.066;2023-05-10T14:05:53;3.92;;;1.75;;
60354;SDS011;46198;51.464;-0.066;2023-05-10T14:08:23;4.70;;;1.80;;
60354;SDS011;46198;51.464;-0.066;2023-05-10T14:11:00;4.07;;;1.77;;
60354;SDS011;46198;51.464;-0.066;2023-05-10T14:16:22;2.72;;;1.50;;
60354;SDS011;46198;51.464;-0.066;2023-05-10T14:18:53;4.97;;;1.98;;
60354;SDS011;46198;51.464;-0.066;2023-05-10T14:21:23;3.70;;;2.00;;
60354;SDS011;46198;51.464;-0.066;2023-05-10T14:23:57;4.75;;;1.90;;
60354;SDS011;46198;51.464;-0.066;2023-05-10T14:26:25;3.90;;;2.10;;
60354;SDS011;46198;51.464;-0.066;2023-05-10T14:33:50;2.50;;;1.42;;
60354;SDS011;46198;51.464;-0.066;2023-05-10T14:36:19;3.42;;;1.30;;
60354;SDS011;46198;51.464;-0.066;2023-05-10T14:38:47;3.70;;;1.35;;
60354;SDS011;46198;51.464;-0.066;2023-05-10T14:41:17;4.80;;;1.80;;
60354;SDS011;46198;51.464;-0.066;2023-05-10T14:43:46;3.30;;;1.70;;
60354;SDS011;46198;51.464;-0.066;2023-05-10T14:46:14;2.00;;;1.20;;
60354;SDS011;46198;51.464;-0.066;2023-05-10T14:48:43;5.03;;;1.75;;
60354;SDS011;46198;51.464;-0.066;2023-05-10T14:51:11;2.97;;;1.40;;
60354;SDS011;46198;51.464;-0.066;2023-05-10T14:53:39;4.72;;;1.60;;
60354;SDS011;46198;51.464;-0.066;2023-05-10T14:56:07;3.10;;;1.35;;
60354;SDS011;46198;51.464;-0.066;2023-05-10T14:58:37;2.38;;;1.27;;
60354;SDS011;46198;51.464;-0.066;2023-05-10T15:01:05;3.33;;;1.42;;
60354;SDS011;46198;51.464;-0.066;2023-05-10T15:03:34;2.25;;;1.50;;
60354;SDS011;46198;51.464;-0.066;2023-05-10T15:06:03;4.15;;;1.70;;
60354;SDS011;46198;51.464;-0.066;2023-05-10T15:08:32;3.20;;;1.48;;
60354;SDS011;46198;51.464;-0.066;2023-05-10T15:11:00;3.35;;;2.00;;
60354;SDS011;46198;51.464;-0.066;2023-05-10T15:13:28;6.63;;;1.65;;
60354;SDS011;46198;51.464;-0.066;2023-05-10T15:15:57;4.43;;;2.20;;
60354;SDS011;46198;51.464;-0.066;2023-05-10T15:20:55;3.92;;;1.50;;
60354;SDS011;46198;51.464;-0.066;2023-05-10T15:23:24;4.95;;;1.60;;
60354;SDS011;46198;51.464;-0.066;2023-05-10T15:25:53;8.25;;;4.45;;
60354;SDS011;46198;51.464;-0.066;2023-05-10T15:28:22;5.55;;;3.05;;
60354;SDS011;46198;51.464;-0.066;2023-05-10T15:30:50;4.35;;;2.80;;
60354;SDS011;46198;51.464;-0.066;2023-05-10T15:33:20;4.38;;;2.55;;
60354;SDS011;46198;51.464;-0.066;2023-05-10T15:35:51;5.93;;;2.28;;
60354;SDS011;46198;51.464;-0.066;2023-05-10T15:38:20;4.82;;;1.75;;
60354;SDS011;46198;51.464;-0.066;2023-05-10T15:40:49;3.50;;;0.93;;
60354;SDS011;46198;51.464;-0.066;2023-05-10T15:43:17;3.40;;;1.20;;
60354;SDS011;46198;51.464;-0.066;2023-05-10T15:45:45;5.45;;;1.70;;
60354;SDS011;46198;51.464;-0.066;2023-05-10T15:48:13;3.08;;;1.15;;
60354;SDS011;46198;51.464;-0.066;2023-05-10T15:50:43;1.98;;;1.38;;
60354;SDS011;46198;51.464;-0.066;2023-05-10T15:53:11;4.03;;;1.20;;
60354;SDS011;46198;51.464;-0.066;2023-05-10T15:55:39;2.65;;;1.40;;
60354;SDS011;46198;51.464;-0.066;2023-05-10T15:58:07;4.32;;;1.30;;
60354;SDS011;46198;51.464;-0.066;2023-05-10T16:00:36;3.63;;;1.48;;
60354;SDS011;46198;51.464;-0.066;2023-05-10T16:03:05;5.55;;;1.48;;
60354;SDS011;46198;51.464;-0.066;2023-05-10T16:05:33;4.97;;;1.50;;
60354;SDS011;46198;51.464;-0.066;2023-05-10T16:08:03;3.35;;;1.80;;
60354;SDS011;46198;51.464;-0.066;2023-05-10T16:10:31;3.70;;;2.08;;
60354;SDS011;46198;51.464;-0.066;2023-05-10T16:12:59;4.13;;;2.10;;
60354;SDS011;46198;51.464;-0.066;2023-05-10T16:15:29;4.20;;;1.85;;
60354;SDS011;46198;51.464;-0.066;2023-05-10T16:17:57;3.58;;;1.50;;
60354;SDS011;46198;51.464;-0.066;2023-05-10T16:20:26;4.78;;;2.00;;
60354;SDS011;46198;51.464;-0.066;2023-05-10T16:22:55;6.40;;;2.05;;
60354;SDS011;46198;51.464;-0.066;2023-05-10T16:25:25;2.90;;;1.80;;
60354;SDS011;46198;51.464;-0.066;2023-05-10T16:27:53;5.43;;;2.13;;
60354;SDS011;46198;51.464;-0.066;2023-05-10T16:30:21;6.18;;;1.60;;
60354;SDS011;46198;51.464;-0.066;2023-05-10T16:32:50;2.45;;;1.58;;
60354;SDS011;46198;51.464;-0.066;2023-05-10T16:35:20;2.20;;;1.27;;
60354;SDS011;46198;51.464;-0.066;2023-05-10T16:37:49;2.00;;;1.30;;
60354;SDS011;46198;51.464;-0.066;2023-05-10T16:40:17;2.47;;;1.08;;
60354;SDS011;46198;51.464;-0.066;2023-05-10T16:42:47;2.63;;;1.02;;
60354;SDS011;46198;51.464;-0.066;2023-05-10T16:45:16;3.00;;;1.00;;
60354;SDS011;46198;51.464;-0.066;2023-05-10T16:47:45;3.90;;;1.40;;
60354;SDS011;46198;51.464;-0.066;2023-05-10T16:50:13;3.15;;;1.35;;
60354;SDS011;46198;51.464;-0.066;2023-05-10T16:52:49;4.05;;;1.48;;
60354;SDS011;46198;51.464;-0.066;2023-05-10T16:55:18;12.60;;;2.63;;
60354;SDS011;46198;51.464;-0.066;2023-05-10T16:57:47;8.88;;;2.10;;
60354;SDS011;46198;51.464;-0.066;2023-05-10T17:00:16;9.80;;;2.80;;
60354;SDS011;46198;51.464;-0.066;2023-05-10T17:02:46;4.75;;;1.88;;
60354;SDS011;46198;51.464;-0.066;2023-05-10T17:05:14;6.65;;;1.98;;
60354;SDS011;46198;51.464;-0.066;2023-05-10T17:07:43;4.35;;;1.85;;
60354;SDS011;46198;51.464;-0.066;2023-05-10T17:10:11;2.92;;;1.60;;
60354;SDS011;46198;51.464;-0.066;2023-05-10T17:12:40;2.90;;;1.40;;
60354;SDS011;46198;51.464;-0.066;2023-05-10T17:15:10;2.80;;;1.25;;
60354;SDS011;46198;51.464;-0.066;2023-05-10T17:17:38;5.40;;;1.95;;
60354;SDS011;46198;51.464;-0.066;2023-05-10T17:20:10;5.35;;;2.42;;
60354;SDS011;46198;51.464;-0.066;2023-05-10T17:25:09;4.03;;;2.42;;
60354;SDS011;46198;51.464;-0.066;2023-05-10T17:27:37;6.70;;;3.33;;
60354;SDS011;46198;51.464;-0.066;2023-05-10T17:30:06;7.47;;;3.78;;
60354;SDS011;46198;51.464;-0.066;2023-05-10T17:32:37;6.50;;;3.60;;
60354;SDS011;46198;51.464;-0.066;2023-05-10T17:35:05;5.13;;;2.83;;
60354;SDS011;46198;51.464;-0.066;2023-05-10T17:37:34;4.65;;;2.40;;
60354;SDS011;46198;51.464;-0.066;2023-05-10T17:40:03;6.80;;;2.45;;
60354;SDS011;46198;51.464;-0.066;2023-05-10T17:42:33;5.30;;;2.25;;
60354;SDS011;46198;51.464;-0.066;2023-05-10T17:45:02;5.55;;;2.30;;
60354;SDS011;46198;51.464;-0.066;2023-05-10T17:50:56;6.72;;;2.85;;
60354;SDS011;46198;51.464;-0.066;2023-05-10T17:53:28;4.22;;;2.20;;
60354;SDS011;46198;51.464;-0.066;2023-05-10T17:56:00;4.72;;;2.38;;
60354;SDS011;46198;51.464;-0.066;2023-05-10T17:58:29;7.38;;;2.28;;
60354;SDS011;46198;51.464;-0.066;2023-05-10T18:00:57;6.07;;;2.67;;
60354;SDS011;46198;51.464;-0.066;2023-05-10T18:03:26;4.40;;;2.53;;
60354;SDS011;46198;51.464;-0.066;2023-05-10T18:06:04;3.70;;;2.10;;